createdAt,value
2023-01-26T00:06:56.414Z,100259.31
2023-01-26T00:17:02.330Z,100252.24
2023-01-26T00:27:08.145Z,100242.64
2023-01-26T00:37:13.977Z,100237.00
2023-01-26T00:47:20.162Z,100238.95
2023-01-26T00:57:26.020Z,100233.14
2023-01-26T01:07:31.839Z,100239.20
2023-01-26T01:17:37.906Z,100238.16
2023-01-26T01:27:43.683Z,100226.66
2023-01-26T01:37:49.347Z,100215.30
2023-01-26T01:47:57.248Z,100197.95
2023-01-26T01:58:06.238Z,100187.84
2023-01-26T02:08:14.507Z,100182.37
2023-01-26T02:18:20.810Z,100175.71
2023-01-26T02:28:28.874Z,100151.48
2023-01-26T02:38:41.154Z,100144.44
2023-01-26T02:49:04.516Z,100138.95
2023-01-26T02:59:10.316Z,100122.27
2023-01-26T03:09:16.430Z,100106.14
2023-01-26T03:19:40.417Z,100089.13
2023-01-26T03:29:46.982Z,100084.80
2023-01-26T03:40:11.755Z,100075.86
2023-01-26T03:50:36.359Z,100066.90
2023-01-26T04:00:42.274Z,100054.54
2023-01-26T04:10:47.986Z,100037.37
2023-01-26T04:21:11.464Z,100033.77
2023-01-26T04:31:17.549Z,100038.58
2023-01-26T04:41:23.909Z,100044.77
2023-01-26T04:51:29.587Z,100031.69
2023-01-26T05:01:35.540Z,100025.00
2023-01-26T05:11:41.332Z,100021.92
2023-01-26T05:21:47.408Z,100022.44
2023-01-26T05:31:53.506Z,100020.71
2023-01-26T05:41:59.214Z,100019.52
2023-01-26T05:52:09.165Z,100019.02
2023-01-26T06:02:15.399Z,100021.46
2023-01-26T06:12:22.811Z,100013.73
2023-01-26T06:22:28.882Z,100001.85
2023-01-26T06:32:34.604Z,99999.44
2023-01-26T06:42:40.299Z,99998.01
2023-01-26T06:52:51.734Z,100003.42
2023-01-26T07:02:57.581Z,100000.77
2023-01-26T07:13:04.453Z,100000.38
2023-01-26T07:23:10.695Z,100000.95
2023-01-26T07:33:16.592Z,99999.96
2023-01-26T07:43:22.662Z,99994.33
2023-01-26T07:53:29.392Z,99988.64
2023-01-26T08:03:33.661Z,99978.20
2023-01-26T08:13:39.781Z,99965.42
2023-01-26T08:23:48.835Z,99972.61
2023-01-26T08:33:56.413Z,99981.17
2023-01-26T08:44:02.289Z,99991.05
2023-01-26T08:54:09.655Z,100001.18
2023-01-26T09:04:15.594Z,100010.20
2023-01-26T09:14:21.493Z,100007.05
2023-01-26T09:24:27.854Z,100012.35
2023-01-26T09:34:33.717Z,100008.66
2023-01-26T09:44:47.108Z,100001.98
2023-01-26T09:54:55.394Z,99984.27
2023-01-26T10:05:06.124Z,99979.98
2023-01-26T10:15:26.985Z,99962.07
2023-01-26T10:25:38.168Z,99956.84
2023-01-26T10:35:44.055Z,99943.86
2023-01-26T10:45:50.376Z,99934.91
2023-01-26T10:56:05.580Z,99928.70
2023-01-26T11:06:17.033Z,99910.66
2023-01-26T11:16:26.194Z,99895.13
2023-01-26T11:26:59.062Z,99886.13
2023-01-26T11:37:53.819Z,99873.36
2023-01-26T11:48:13.894Z,99870.85
2023-01-26T11:58:33.336Z,99866.80
2023-01-26T12:08:43.436Z,99851.12
2023-01-26T12:19:10.042Z,99847.69
2023-01-26T12:29:22.443Z,99845.05
2023-01-26T12:39:36.961Z,99841.17
2023-01-26T12:49:51.158Z,99842.22
2023-01-26T13:00:10.106Z,99841.30
2023-01-26T13:10:31.566Z,99828.48
2023-01-26T13:20:57.266Z,99819.90
2023-01-26T13:31:10.409Z,99822.85
2023-01-26T13:41:22.277Z,99822.81
2023-01-26T13:51:30.359Z,99823.38
2023-01-26T14:01:42.440Z,99832.63
2023-01-26T14:11:57.035Z,99825.04
2023-01-26T14:22:05.346Z,99811.35
2023-01-26T14:32:18.027Z,99804.10
2023-01-26T14:42:24.661Z,99804.75
2023-01-26T14:52:35.016Z,99800.91
2023-01-26T15:02:48.086Z,99791.59
2023-01-26T15:13:02.257Z,99790.15
2023-01-26T15:23:25.494Z,99779.96
2023-01-26T15:33:45.723Z,99784.17
2023-01-26T15:43:51.556Z,99797.64
2023-01-26T15:53:57.530Z,99799.77
2023-01-26T16:04:03.346Z,99814.39
2023-01-26T16:14:10.529Z,99814.52
2023-01-26T16:24:16.274Z,99808.73
2023-01-26T16:34:22.120Z,99814.21
2023-01-26T16:44:27.891Z,99812.00
2023-01-26T16:54:33.869Z,99816.66
2023-01-26T17:04:39.611Z,99827.27
2023-01-26T17:14:45.463Z,99832.05
2023-01-26T17:24:52.064Z,99829.45
2023-01-26T17:34:57.864Z,99817.84
2023-01-26T17:45:04.033Z,99803.28
2023-01-26T17:55:10.690Z,99798.89
2023-01-26T18:05:16.940Z,99801.67
2023-01-26T18:15:23.098Z,99808.73
2023-01-26T18:25:29.410Z,99810.95
2023-01-26T18:35:35.406Z,99810.39
2023-01-26T18:45:44.329Z,99816.83
2023-01-26T18:55:51.302Z,99826.41
2023-01-26T19:05:57.090Z,99828.46
2023-01-26T19:16:03.078Z,99829.45
2023-01-26T19:26:14.009Z,99829.92
2023-01-26T19:36:20.808Z,99830.20
2023-01-26T19:46:27.000Z,99822.65
2023-01-26T19:56:36.104Z,99816.45
2023-01-26T20:06:42.008Z,99807.34
2023-01-26T20:16:47.923Z,99803.55
2023-01-26T20:26:54.302Z,99799.79
2023-01-26T20:37:01.099Z,99795.53
2023-01-26T20:47:07.500Z,99799.30
2023-01-26T20:57:11.845Z,99796.57
2023-01-26T21:07:17.574Z,99794.17
2023-01-26T21:17:24.521Z,99792.60
2023-01-26T21:27:30.483Z,99790.54
2023-01-26T21:37:36.363Z,99789.48
2023-01-26T21:47:42.289Z,99787.90
2023-01-26T21:58:05.694Z,99790.48
2023-01-26T22:08:11.744Z,99790.19
2023-01-26T22:18:17.766Z,99788.86
2023-01-26T22:28:23.609Z,99787.00
2023-01-26T22:38:29.443Z,99786.11
2023-01-26T22:48:35.658Z,99779.91
2023-01-26T22:58:56.592Z,99783.64
2023-01-26T23:09:04.821Z,99776.39
2023-01-26T23:19:11.158Z,99773.62
2023-01-26T23:29:16.851Z,99766.91
2023-01-26T23:39:22.890Z,99767.42
2023-01-26T23:49:28.700Z,99764.15
2023-01-26T23:59:34.645Z,99755.20
